sensor_id;sensor_type;location;lat;lon;timestamp;temperature;humidity
837;DHT22;400;53.550;9.932;2023-09-08T00:02:09;21.70;1.00
837;DHT22;400;53.550;9.932;2023-09-08T00:04:36;21.70;1.00
837;DHT22;400;53.550;9.932;2023-09-08T00:07:03;21.60;1.00
837;DHT22;400;53.550;9.932;2023-09-08T00:09:30;21.60;1.00
837;DHT22;400;53.550;9.932;2023-09-08T00:11:58;21.60;1.00
837;DHT22;400;53.550;9.932;2023-09-08T00:14:25;21.50;1.00
837;DHT22;400;53.550;9.932;2023-09-08T00:16:51;21.50;1.00
837;DHT22;400;53.550;9.932;2023-09-08T00:19:19;21.50;1.00
837;DHT22;400;53.550;9.932;2023-09-08T00:21:46;21.50;1.00
837;DHT22;400;53.550;9.932;2023-09-08T00:24:13;21.50;1.00
837;DHT22;400;53.550;9.932;2023-09-08T00:26:41;21.50;1.00
837;DHT22;400;53.550;9.932;2023-09-08T00:29:09;21.40;1.00
837;DHT22;400;53.550;9.932;2023-09-08T00:31:35;21.40;1.00
837;DHT22;400;53.550;9.932;2023-09-08T00:34:02;21.40;1.00
837;DHT22;400;53.550;9.932;2023-09-08T00:36:29;21.40;1.00
837;DHT22;400;53.550;9.932;2023-09-08T00:38:55;21.30;1.00
837;DHT22;400;53.550;9.932;2023-09-08T00:41:22;21.30;1.00
837;DHT22;400;53.550;9.932;2023-09-08T00:43:49;21.30;1.00
837;DHT22;400;53.550;9.932;2023-09-08T00:46:17;21.30;1.00
837;DHT22;400;53.550;9.932;2023-09-08T00:48:44;21.30;1.00
837;DHT22;400;53.550;9.932;2023-09-08T00:51:11;21.20;1.00
837;DHT22;400;53.550;9.932;2023-09-08T00:53:38;21.20;1.00
837;DHT22;400;53.550;9.932;2023-09-08T00:56:04;21.20;1.00
837;DHT22;400;53.550;9.932;2023-09-08T00:58:31;21.20;1.00
837;DHT22;400;53.550;9.932;2023-09-08T01:00:58;21.20;1.00
837;DHT22;400;53.550;9.932;2023-09-08T01:03:26;21.10;1.00
837;DHT22;400;53.550;9.932;2023-09-08T01:05:53;21.10;1.00
837;DHT22;400;53.550;9.932;2023-09-08T01:08:21;21.10;1.00
837;DHT22;400;53.550;9.932;2023-09-08T01:10:47;21.10;1.00
837;DHT22;400;53.550;9.932;2023-09-08T01:13:14;21.00;1.00
837;DHT22;400;53.550;9.932;2023-09-08T01:15:41;21.00;1.00
837;DHT22;400;53.550;9.932;2023-09-08T01:18:08;21.00;1.00
837;DHT22;400;53.550;9.932;2023-09-08T01:20:48;21.00;1.00
837;DHT22;400;53.550;9.932;2023-09-08T01:23:31;20.90;1.00
837;DHT22;400;53.550;9.932;2023-09-08T01:26:07;20.90;1.00
837;DHT22;400;53.550;9.932;2023-09-08T01:28:34;20.90;1.00
837;DHT22;400;53.550;9.932;2023-09-08T01:31:02;20.90;1.00
837;DHT22;400;53.550;9.932;2023-09-08T01:33:29;20.80;1.00
837;DHT22;400;53.550;9.932;2023-09-08T01:35:56;20.90;1.00
837;DHT22;400;53.550;9.932;2023-09-08T01:38:25;20.80;1.00
837;DHT22;400;53.550;9.932;2023-09-08T01:40:52;20.80;1.00
837;DHT22;400;53.550;9.932;2023-09-08T01:43:20;20.80;1.00
837;DHT22;400;53.550;9.932;2023-09-08T01:45:47;20.70;1.00
837;DHT22;400;53.550;9.932;2023-09-08T01:48:14;20.70;1.00
837;DHT22;400;53.550;9.932;2023-09-08T01:50:41;20.70;1.00
837;DHT22;400;53.550;9.932;2023-09-08T01:53:08;20.70;1.00
837;DHT22;400;53.550;9.932;2023-09-08T01:55:34;20.70;1.00
837;DHT22;400;53.550;9.932;2023-09-08T01:58:01;20.70;1.00
837;DHT22;400;53.550;9.932;2023-09-08T02:00:29;20.60;1.00
837;DHT22;400;53.550;9.932;2023-09-08T02:02:56;20.60;1.00
837;DHT22;400;53.550;9.932;2023-09-08T02:05:23;20.60;1.00
837;DHT22;400;53.550;9.932;2023-09-08T02:07:51;20.60;1.00
837;DHT22;400;53.550;9.932;2023-09-08T02:10:17;20.50;1.00
837;DHT22;400;53.550;9.932;2023-09-08T02:12:46;20.60;1.00
837;DHT22;400;53.550;9.932;2023-09-08T02:15:13;20.50;1.00
837;DHT22;400;53.550;9.932;2023-09-08T02:17:42;20.50;1.00
837;DHT22;400;53.550;9.932;2023-09-08T02:20:10;20.50;1.00
837;DHT22;400;53.550;9.932;2023-09-08T02:22:37;20.50;1.00
837;DHT22;400;53.550;9.932;2023-09-08T02:25:04;20.50;1.00
837;DHT22;400;53.550;9.932;2023-09-08T02:27:32;20.40;1.00
837;DHT22;400;53.550;9.932;2023-09-08T02:29:58;20.40;1.00
837;DHT22;400;53.550;9.932;2023-09-08T02:32:25;20.40;1.00
837;DHT22;400;53.550;9.932;2023-09-08T02:34:54;20.40;1.00
837;DHT22;400;53.550;9.932;2023-09-08T02:37:21;20.40;1.00
837;DHT22;400;53.550;9.932;2023-09-08T02:39:47;20.30;1.00
837;DHT22;400;53.550;9.932;2023-09-08T02:42:14;20.20;1.00
837;DHT22;400;53.550;9.932;2023-09-08T02:44:41;20.20;1.00
837;DHT22;400;53.550;9.932;2023-09-08T02:47:09;20.20;1.00
837;DHT22;400;53.550;9.932;2023-09-08T02:49:37;20.20;1.00
837;DHT22;400;53.550;9.932;2023-09-08T02:52:06;20.10;1.00
837;DHT22;400;53.550;9.932;2023-09-08T02:54:33;20.10;1.00
837;DHT22;400;53.550;9.932;2023-09-08T02:57:00;20.10;1.00
837;DHT22;400;53.550;9.932;2023-09-08T02:59:27;20.00;1.00
837;DHT22;400;53.550;9.932;2023-09-08T03:01:53;20.00;1.00
837;DHT22;400;53.550;9.932;2023-09-08T03:04:22;20.00;1.00
837;DHT22;400;53.550;9.932;2023-09-08T03:06:52;20.00;1.00
837;DHT22;400;53.550;9.932;2023-09-08T03:09:20;19.90;1.00
837;DHT22;400;53.550;9.932;2023-09-08T03:11:47;19.90;1.00
837;DHT22;400;53.550;9.932;2023-09-08T03:14:14;19.80;1.00
837;DHT22;400;53.550;9.932;2023-09-08T03:16:41;19.80;1.00
837;DHT22;400;53.550;9.932;2023-09-08T03:19:07;19.80;1.00
837;DHT22;400;53.550;9.932;2023-09-08T03:21:34;19.70;1.00
837;DHT22;400;53.550;9.932;2023-09-08T03:24:01;19.70;1.00
837;DHT22;400;53.550;9.932;2023-09-08T03:26:30;19.70;1.00
837;DHT22;400;53.550;9.932;2023-09-08T03:28:56;19.70;1.00
837;DHT22;400;53.550;9.932;2023-09-08T03:31:23;19.60;1.00
837;DHT22;400;53.550;9.932;2023-09-08T03:33:50;19.70;1.00
837;DHT22;400;53.550;9.932;2023-09-08T03:36:17;19.70;1.00
837;DHT22;400;53.550;9.932;2023-09-08T03:38:44;19.60;1.00
837;DHT22;400;53.550;9.932;2023-09-08T03:41:12;19.60;1.00
837;DHT22;400;53.550;9.932;2023-09-08T03:43:40;19.60;1.00
837;DHT22;400;53.550;9.932;2023-09-08T03:46:08;19.60;1.00
837;DHT22;400;53.550;9.932;2023-09-08T03:48:34;19.60;1.00
837;DHT22;400;53.550;9.932;2023-09-08T03:51:01;19.60;1.00
837;DHT22;400;53.550;9.932;2023-09-08T03:53:28;19.60;1.00
837;DHT22;400;53.550;9.932;2023-09-08T03:55:55;19.60;1.00
837;DHT22;400;53.550;9.932;2023-09-08T03:58:22;19.60;1.00
837;DHT22;400;53.550;9.932;2023-09-08T04:00:50;19.50;1.00
837;DHT22;400;53.550;9.932;2023-09-08T04:03:17;19.50;1.00
837;DHT22;400;53.550;9.932;2023-09-08T04:05:43;19.50;1.00
837;DHT22;400;53.550;9.932;2023-09-08T04:08:10;19.50;1.00
837;DHT22;400;53.550;9.932;2023-09-08T04:10:37;19.50;1.00
837;DHT22;400;53.550;9.932;2023-09-08T04:13:04;19.40;1.00
837;DHT22;400;53.550;9.932;2023-09-08T04:15:31;19.40;1.00
837;DHT22;400;53.550;9.932;2023-09-08T04:18:00;19.40;1.00
837;DHT22;400;53.550;9.932;2023-09-08T04:20:27;19.40;1.00
837;DHT22;400;53.550;9.932;2023-09-08T04:22:54;19.40;1.00
837;DHT22;400;53.550;9.932;2023-09-08T04:25:21;19.40;1.00
837;DHT22;400;53.550;9.932;2023-09-08T04:27:48;19.40;1.00
837;DHT22;400;53.550;9.932;2023-09-08T04:30:15;19.30;1.00
837;DHT22;400;53.550;9.932;2023-09-08T04:32:42;19.30;1.00
837;DHT22;400;53.550;9.932;2023-09-08T04:35:10;19.30;1.00
837;DHT22;400;53.550;9.932;2023-09-08T04:37:38;19.30;1.00
837;DHT22;400;53.550;9.932;2023-09-08T04:40:08;19.30;1.00
837;DHT22;400;53.550;9.932;2023-09-08T04:42:36;19.30;1.00
837;DHT22;400;53.550;9.932;2023-09-08T04:45:04;19.20;1.00
837;DHT22;400;53.550;9.932;2023-09-08T04:47:31;19.20;1.00
837;DHT22;400;53.550;9.932;2023-09-08T04:49:58;19.20;1.00
837;DHT22;400;53.550;9.932;2023-09-08T04:52:28;19.20;1.00
837;DHT22;400;53.550;9.932;2023-09-08T04:54:56;19.20;1.00
837;DHT22;400;53.550;9.932;2023-09-08T04:57:24;19.20;1.00
837;DHT22;400;53.550;9.932;2023-09-08T04:59:57;19.20;1.00
837;DHT22;400;53.550;9.932;2023-09-08T05:02:28;19.10;1.00
837;DHT22;400;53.550;9.932;2023-09-08T05:05:02;19.10;1.00
837;DHT22;400;53.550;9.932;2023-09-08T05:07:33;19.10;1.00
837;DHT22;400;53.550;9.932;2023-09-08T05:10:00;19.10;1.00
837;DHT22;400;53.550;9.932;2023-09-08T05:12:27;19.10;1.00
837;DHT22;400;53.550;9.932;2023-09-08T05:14:54;19.10;1.00
837;DHT22;400;53.550;9.932;2023-09-08T05:17:25;19.10;1.00
837;DHT22;400;53.550;9.932;2023-09-08T05:19:52;19.10;1.00
837;DHT22;400;53.550;9.932;2023-09-08T05:22:19;19.10;1.00
837;DHT22;400;53.550;9.932;2023-09-08T05:24:51;19.20;1.00
837;DHT22;400;53.550;9.932;2023-09-08T05:27:21;19.20;1.00
837;DHT22;400;53.550;9.932;2023-09-08T05:29:47;19.20;1.00
837;DHT22;400;53.550;9.932;2023-09-08T05:32:14;19.20;1.00
837;DHT22;400;53.550;9.932;2023-09-08T05:34:41;19.10;1.00
837;DHT22;400;53.550;9.932;2023-09-08T05:37:08;19.10;1.00
837;DHT22;400;53.550;9.932;2023-09-08T05:39:39;19.20;1.00
837;DHT22;400;53.550;9.932;2023-09-08T05:42:08;19.20;1.00
837;DHT22;400;53.550;9.932;2023-09-08T05:44:35;19.20;1.00
837;DHT22;400;53.550;9.932;2023-09-08T05:47:02;19.20;1.00
837;DHT22;400;53.550;9.932;2023-09-08T05:49:29;19.20;1.00
837;DHT22;400;53.550;9.932;2023-09-08T05:51:56;19.30;1.00
837;DHT22;400;53.550;9.932;2023-09-08T05:54:28;19.30;1.00
837;DHT22;400;53.550;9.932;2023-09-08T05:56:56;19.30;1.00
837;DHT22;400;53.550;9.932;2023-09-08T05:59:24;19.30;1.00
837;DHT22;400;53.550;9.932;2023-09-08T06:01:51;19.40;1.00
837;DHT22;400;53.550;9.932;2023-09-08T06:04:18;19.40;1.00
837;DHT22;400;53.550;9.932;2023-09-08T06:06:45;19.50;1.00
837;DHT22;400;53.550;9.932;2023-09-08T06:09:12;19.50;1.00
837;DHT22;400;53.550;9.932;2023-09-08T06:11:40;19.50;1.00
837;DHT22;400;53.550;9.932;2023-09-08T06:14:07;19.50;1.00
837;DHT22;400;53.550;9.932;2023-09-08T06:16:38;19.60;1.00
837;DHT22;400;53.550;9.932;2023-09-08T06:19:09;19.50;1.00
837;DHT22;400;53.550;9.932;2023-09-08T06:21:40;19.50;1.00
837;DHT22;400;53.550;9.932;2023-09-08T06:24:14;19.60;1.00
837;DHT22;400;53.550;9.932;2023-09-08T06:26:43;19.60;1.00
837;DHT22;400;53.550;9.932;2023-09-08T06:29:10;19.60;1.00
837;DHT22;400;53.550;9.932;2023-09-08T06:31:38;19.70;1.00
837;DHT22;400;53.550;9.932;2023-09-08T06:34:05;19.70;1.00
837;DHT22;400;53.550;9.932;2023-09-08T06:36:32;19.70;1.00
837;DHT22;400;53.550;9.932;2023-09-08T06:39:00;19.80;1.00
837;DHT22;400;53.550;9.932;2023-09-08T06:41:29;19.80;1.00
837;DHT22;400;53.550;9.932;2023-09-08T06:43:58;19.90;1.00
837;DHT22;400;53.550;9.932;2023-09-08T06:46:27;19.90;1.00
837;DHT22;400;53.550;9.932;2023-09-08T06:48:57;19.90;1.00
837;DHT22;400;53.550;9.932;2023-09-08T06:51:28;20.00;1.00
837;DHT22;400;53.550;9.932;2023-09-08T06:54:00;20.00;1.00
837;DHT22;400;53.550;9.932;2023-09-08T06:56:30;20.10;1.00
837;DHT22;400;53.550;9.932;2023-09-08T06:58:57;20.10;1.00
837;DHT22;400;53.550;9.932;2023-09-08T07:01:26;20.10;1.00
837;DHT22;400;53.550;9.932;2023-09-08T07:03:54;20.20;1.00
837;DHT22;400;53.550;9.932;2023-09-08T07:06:22;20.30;1.00
837;DHT22;400;53.550;9.932;2023-09-08T07:08:49;20.30;1.00
837;DHT22;400;53.550;9.932;2023-09-08T07:11:19;20.30;1.00
837;DHT22;400;53.550;9.932;2023-09-08T07:13:52;20.30;1.00
837;DHT22;400;53.550;9.932;2023-09-08T07:16:21;20.40;1.00
837;DHT22;400;53.550;9.932;2023-09-08T07:18:49;20.40;1.00
837;DHT22;400;53.550;9.932;2023-09-08T07:21:19;20.40;1.00
837;DHT22;400;53.550;9.932;2023-09-08T07:23:50;20.40;1.00
837;DHT22;400;53.550;9.932;2023-09-08T07:26:23;20.50;1.00
837;DHT22;400;53.550;9.932;2023-09-08T07:28:55;20.50;1.00
837;DHT22;400;53.550;9.932;2023-09-08T07:31:22;20.50;1.00
837;DHT22;400;53.550;9.932;2023-09-08T07:33:50;20.50;1.00
837;DHT22;400;53.550;9.932;2023-09-08T07:36:19;20.60;1.00
837;DHT22;400;53.550;9.932;2023-09-08T07:38:46;20.60;1.00
837;DHT22;400;53.550;9.932;2023-09-08T07:41:12;20.70;1.00
837;DHT22;400;53.550;9.932;2023-09-08T07:43:40;20.70;1.00
837;DHT22;400;53.550;9.932;2023-09-08T07:46:08;20.70;1.00
837;DHT22;400;53.550;9.932;2023-09-08T07:48:35;20.80;1.00
837;DHT22;400;53.550;9.932;2023-09-08T07:51:02;20.80;1.00
837;DHT22;400;53.550;9.932;2023-09-08T07:53:31;20.90;1.00
837;DHT22;400;53.550;9.932;2023-09-08T07:55:58;20.90;1.00
837;DHT22;400;53.550;9.932;2023-09-08T07:58:25;20.90;1.00
837;DHT22;400;53.550;9.932;2023-09-08T08:00:52;21.10;1.00
837;DHT22;400;53.550;9.932;2023-09-08T08:03:19;21.10;1.00
837;DHT22;400;53.550;9.932;2023-09-08T08:05:46;21.20;1.00
837;DHT22;400;53.550;9.932;2023-09-08T08:08:14;21.20;1.00
837;DHT22;400;53.550;9.932;2023-09-08T08:10:44;21.30;1.00
837;DHT22;400;53.550;9.932;2023-09-08T08:13:11;21.30;1.00
837;DHT22;400;53.550;9.932;2023-09-08T08:15:39;21.40;1.00
837;DHT22;400;53.550;9.932;2023-09-08T08:18:09;21.40;1.00
837;DHT22;400;53.550;9.932;2023-09-08T08:20:41;21.50;1.00
837;DHT22;400;53.550;9.932;2023-09-08T08:23:11;21.50;1.00
837;DHT22;400;53.550;9.932;2023-09-08T08:25:37;21.60;1.00
837;DHT22;400;53.550;9.932;2023-09-08T08:28:06;21.60;1.00
837;DHT22;400;53.550;9.932;2023-09-08T08:30:33;21.60;1.00
837;DHT22;400;53.550;9.932;2023-09-08T08:33:01;21.70;1.00
837;DHT22;400;53.550;9.932;2023-09-08T08:35:29;21.70;1.00
837;DHT22;400;53.550;9.932;2023-09-08T08:38:00;21.80;1.00
837;DHT22;400;53.550;9.932;2023-09-08T08:40:29;21.80;1.00
837;DHT22;400;53.550;9.932;2023-09-08T08:42:57;21.80;1.00
837;DHT22;400;53.550;9.932;2023-09-08T08:45:26;21.90;1.00
837;DHT22;400;53.550;9.932;2023-09-08T08:47:53;21.90;1.00
837;DHT22;400;53.550;9.932;2023-09-08T08:50:20;22.00;1.00
837;DHT22;400;53.550;9.932;2023-09-08T08:52:47;22.10;1.00
837;DHT22;400;53.550;9.932;2023-09-08T08:55:15;22.10;1.00
837;DHT22;400;53.550;9.932;2023-09-08T08:57:45;22.20;1.00
837;DHT22;400;53.550;9.932;2023-09-08T09:00:16;22.30;1.00
837;DHT22;400;53.550;9.932;2023-09-08T09:02:46;22.30;1.00
837;DHT22;400;53.550;9.932;2023-09-08T09:05:18;22.30;1.00
837;DHT22;400;53.550;9.932;2023-09-08T09:07:48;22.40;1.00
837;DHT22;400;53.550;9.932;2023-09-08T09:10:18;22.40;1.00
837;DHT22;400;53.550;9.932;2023-09-08T09:12:49;22.50;1.00
837;DHT22;400;53.550;9.932;2023-09-08T09:15:28;22.50;1.00
837;DHT22;400;53.550;9.932;2023-09-08T09:18:07;22.60;1.00
837;DHT22;400;53.550;9.932;2023-09-08T09:20:34;22.70;1.00
837;DHT22;400;53.550;9.932;2023-09-08T09:23:01;22.70;1.00
837;DHT22;400;53.550;9.932;2023-09-08T09:25:30;22.80;1.00
837;DHT22;400;53.550;9.932;2023-09-08T09:27:58;22.90;1.00
837;DHT22;400;53.550;9.932;2023-09-08T09:30:27;22.90;1.00
837;DHT22;400;53.550;9.932;2023-09-08T09:33:00;22.90;1.00
837;DHT22;400;53.550;9.932;2023-09-08T09:38:27;23.00;1.00
837;DHT22;400;53.550;9.932;2023-09-08T09:40:57;23.20;1.00
837;DHT22;400;53.550;9.932;2023-09-08T09:43:29;23.20;1.00
837;DHT22;400;53.550;9.932;2023-09-08T09:46:00;23.30;1.00
837;DHT22;400;53.550;9.932;2023-09-08T09:48:31;23.40;1.00
837;DHT22;400;53.550;9.932;2023-09-08T09:51:15;23.50;1.00
837;DHT22;400;53.550;9.932;2023-09-08T09:53:45;23.50;1.00
837;DHT22;400;53.550;9.932;2023-09-08T09:56:14;23.60;1.00
837;DHT22;400;53.550;9.932;2023-09-08T09:58:44;23.60;1.00
837;DHT22;400;53.550;9.932;2023-09-08T10:01:11;23.70;1.00
837;DHT22;400;53.550;9.932;2023-09-08T10:03:41;23.70;1.00
837;DHT22;400;53.550;9.932;2023-09-08T10:06:15;23.80;1.00
837;DHT22;400;53.550;9.932;2023-09-08T10:08:48;23.90;1.00
837;DHT22;400;53.550;9.932;2023-09-08T10:11:21;23.90;1.00
837;DHT22;400;53.550;9.932;2023-09-08T10:13:51;24.00;1.00
837;DHT22;400;53.550;9.932;2023-09-08T10:16:27;24.00;1.00
837;DHT22;400;53.550;9.932;2023-09-08T10:19:00;24.10;1.00
837;DHT22;400;53.550;9.932;2023-09-08T10:21:33;24.20;1.00
837;DHT22;400;53.550;9.932;2023-09-08T10:24:14;24.20;1.00
837;DHT22;400;53.550;9.932;2023-09-08T10:26:44;24.30;1.00
837;DHT22;400;53.550;9.932;2023-09-08T10:29:14;24.30;1.00
837;DHT22;400;53.550;9.932;2023-09-08T10:31:45;24.40;1.00
837;DHT22;400;53.550;9.932;2023-09-08T10:34:15;24.50;1.00
837;DHT22;400;53.550;9.932;2023-09-08T10:36:46;24.50;1.00
837;DHT22;400;53.550;9.932;2023-09-08T10:39:32;24.60;1.00
837;DHT22;400;53.550;9.932;2023-09-08T10:42:28;24.60;1.00
837;DHT22;400;53.550;9.932;2023-09-08T10:45:01;24.70;1.00
837;DHT22;400;53.550;9.932;2023-09-08T10:47:55;24.80;1.00
837;DHT22;400;53.550;9.932;2023-09-08T10:50:30;24.80;1.00
837;DHT22;400;53.550;9.932;2023-09-08T10:53:07;24.90;1.00
837;DHT22;400;53.550;9.932;2023-09-08T10:55:46;25.00;1.00
837;DHT22;400;53.550;9.932;2023-09-08T10:58:19;25.00;1.00
837;DHT22;400;53.550;9.932;2023-09-08T11:00:47;25.10;1.00
837;DHT22;400;53.550;9.932;2023-09-08T11:03:27;25.10;1.00
837;DHT22;400;53.550;9.932;2023-09-08T11:05:58;25.30;1.00
837;DHT22;400;53.550;9.932;2023-09-08T11:08:28;25.30;1.00
837;DHT22;400;53.550;9.932;2023-09-08T11:11:00;25.30;1.00
837;DHT22;400;53.550;9.932;2023-09-08T11:13:29;25.40;1.00
837;DHT22;400;53.550;9.932;2023-09-08T11:16:01;25.50;1.00
837;DHT22;400;53.550;9.932;2023-09-08T11:18:47;25.50;1.00
837;DHT22;400;53.550;9.932;2023-09-08T11:21:28;25.60;1.00
837;DHT22;400;53.550;9.932;2023-09-08T11:24:08;25.70;1.00
837;DHT22;400;53.550;9.932;2023-09-08T11:27:02;25.70;1.00
837;DHT22;400;53.550;9.932;2023-09-08T11:29:31;25.80;1.00
837;DHT22;400;53.550;9.932;2023-09-08T11:32:00;25.80;1.00
837;DHT22;400;53.550;9.932;2023-09-08T11:34:37;25.90;1.00
837;DHT22;400;53.550;9.932;2023-09-08T11:37:09;25.90;1.00
837;DHT22;400;53.550;9.932;2023-09-08T11:39:37;26.00;1.00
837;DHT22;400;53.550;9.932;2023-09-08T11:42:07;26.10;1.00
837;DHT22;400;53.550;9.932;2023-09-08T11:44:35;26.10;1.00
837;DHT22;400;53.550;9.932;2023-09-08T11:47:03;26.20;1.00
837;DHT22;400;53.550;9.932;2023-09-08T11:49:34;26.20;1.00
837;DHT22;400;53.550;9.932;2023-09-08T11:52:04;26.30;1.00
837;DHT22;400;53.550;9.932;2023-09-08T11:54:34;26.30;1.00
837;DHT22;400;53.550;9.932;2023-09-08T11:57:04;26.40;1.00
837;DHT22;400;53.550;9.932;2023-09-08T11:59:39;26.40;1.00
837;DHT22;400;53.550;9.932;2023-09-08T12:02:08;26.50;1.00
837;DHT22;400;53.550;9.932;2023-09-08T12:04:36;26.60;1.00
837;DHT22;400;53.550;9.932;2023-09-08T12:07:11;26.60;1.00
837;DHT22;400;53.550;9.932;2023-09-08T12:09:48;26.60;1.00
837;DHT22;400;53.550;9.932;2023-09-08T12:12:19;26.70;1.00
837;DHT22;400;53.550;9.932;2023-09-08T12:14:49;26.80;1.00
837;DHT22;400;53.550;9.932;2023-09-08T12:17:16;26.80;1.00
837;DHT22;400;53.550;9.932;2023-09-08T12:19:46;26.90;1.00
837;DHT22;400;53.550;9.932;2023-09-08T12:22:18;26.90;1.00
837;DHT22;400;53.550;9.932;2023-09-08T12:24:50;27.00;1.00
837;DHT22;400;53.550;9.932;2023-09-08T12:27:25;27.10;1.00
837;DHT22;400;53.550;9.932;2023-09-08T12:29:58;27.10;1.00
837;DHT22;400;53.550;9.932;2023-09-08T12:32:28;27.20;1.00
837;DHT22;400;53.550;9.932;2023-09-08T12:34:58;27.20;1.00
837;DHT22;400;53.550;9.932;2023-09-08T12:37:29;27.30;1.00
837;DHT22;400;53.550;9.932;2023-09-08T12:39:57;27.30;1.00
837;DHT22;400;53.550;9.932;2023-09-08T12:42:28;27.40;1.00
837;DHT22;400;53.550;9.932;2023-09-08T12:45:02;27.40;1.00
837;DHT22;400;53.550;9.932;2023-09-08T12:47:32;27.40;1.00
837;DHT22;400;53.550;9.932;2023-09-08T12:49:58;27.50;1.00
837;DHT22;400;53.550;9.932;2023-09-08T12:52:26;27.50;1.00
837;DHT22;400;53.550;9.932;2023-09-08T12:54:56;27.50;1.00
837;DHT22;400;53.550;9.932;2023-09-08T12:57:24;27.60;1.00
837;DHT22;400;53.550;9.932;2023-09-08T12:59:52;27.60;1.00
837;DHT22;400;53.550;9.932;2023-09-08T13:02:20;27.60;1.00
837;DHT22;400;53.550;9.932;2023-09-08T13:04:47;27.60;1.00
837;DHT22;400;53.550;9.932;2023-09-08T13:07:17;27.70;1.00
837;DHT22;400;53.550;9.932;2023-09-08T13:09:47;27.70;1.00
837;DHT22;400;53.550;9.932;2023-09-08T13:12:15;27.70;1.00
837;DHT22;400;53.550;9.932;2023-09-08T13:14:43;27.70;1.00
837;DHT22;400;53.550;9.932;2023-09-08T13:17:13;27.70;1.00
837;DHT22;400;53.550;9.932;2023-09-08T13:19:44;27.70;1.00
837;DHT22;400;53.550;9.932;2023-09-08T13:22:12;27.70;1.00
837;DHT22;400;53.550;9.932;2023-09-08T13:24:40;27.80;1.00
837;DHT22;400;53.550;9.932;2023-09-08T13:27:08;27.70;1.00
837;DHT22;400;53.550;9.932;2023-09-08T13:29:38;27.80;1.00
837;DHT22;400;53.550;9.932;2023-09-08T13:32:07;27.80;1.00
837;DHT22;400;53.550;9.932;2023-09-08T13:34:40;27.80;1.00
837;DHT22;400;53.550;9.932;2023-09-08T13:37:15;27.80;1.00
837;DHT22;400;53.550;9.932;2023-09-08T13:39:56;27.80;1.00
837;DHT22;400;53.550;9.932;2023-09-08T13:42:24;27.80;1.00
837;DHT22;400;53.550;9.932;2023-09-08T13:44:53;27.80;1.00
837;DHT22;400;53.550;9.932;2023-09-08T13:47:20;27.80;1.00
837;DHT22;400;53.550;9.932;2023-09-08T13:49:48;27.80;1.00
837;DHT22;400;53.550;9.932;2023-09-08T13:52:16;27.80;1.00
837;DHT22;400;53.550;9.932;2023-09-08T13:54:45;27.80;1.00
837;DHT22;400;53.550;9.932;2023-09-08T13:57:17;27.80;1.00
837;DHT22;400;53.550;9.932;2023-09-08T13:59:49;27.80;1.00
837;DHT22;400;53.550;9.932;2023-09-08T14:02:22;27.90;1.00
837;DHT22;400;53.550;9.932;2023-09-08T14:04:52;27.90;1.00
837;DHT22;400;53.550;9.932;2023-09-08T14:07:21;27.90;1.00
837;DHT22;400;53.550;9.932;2023-09-08T14:09:48;27.90;1.00
837;DHT22;400;53.550;9.932;2023-09-08T14:12:17;27.90;1.00
837;DHT22;400;53.550;9.932;2023-09-08T14:14:47;27.90;1.00
837;DHT22;400;53.550;9.932;2023-09-08T14:17:19;28.00;1.00
837;DHT22;400;53.550;9.932;2023-09-08T14:19:46;28.00;1.00
837;DHT22;400;53.550;9.932;2023-09-08T14:22:13;28.00;1.00
837;DHT22;400;53.550;9.932;2023-09-08T14:24:42;28.00;1.00
837;DHT22;400;53.550;9.932;2023-09-08T14:27:09;28.00;1.00
837;DHT22;400;53.550;9.932;2023-09-08T14:29:35;28.00;1.00
837;DHT22;400;53.550;9.932;2023-09-08T14:32:03;28.00;1.00
837;DHT22;400;53.550;9.932;2023-09-08T14:34:30;28.00;1.00
837;DHT22;400;53.550;9.932;2023-09-08T14:36:57;28.00;1.00
837;DHT22;400;53.550;9.932;2023-09-08T14:39:24;28.00;1.00
837;DHT22;400;53.550;9.932;2023-09-08T14:41:55;28.00;1.00
837;DHT22;400;53.550;9.932;2023-09-08T14:44:25;28.00;1.00
837;DHT22;400;53.550;9.932;2023-09-08T14:46:52;28.00;1.00
837;DHT22;400;53.550;9.932;2023-09-08T14:49:20;28.00;1.00
837;DHT22;400;53.550;9.932;2023-09-08T14:51:51;28.00;1.00
837;DHT22;400;53.550;9.932;2023-09-08T14:54:22;28.00;1.00
837;DHT22;400;53.550;9.932;2023-09-08T14:56:54;28.10;1.00
837;DHT22;400;53.550;9.932;2023-09-08T14:59:21;28.20;1.00
837;DHT22;400;53.550;9.932;2023-09-08T15:01:48;28.20;1.00
837;DHT22;400;53.550;9.932;2023-09-08T15:04:19;28.20;1.00
837;DHT22;400;53.550;9.932;2023-09-08T15:06:48;28.20;1.00
837;DHT22;400;53.550;9.932;2023-09-08T15:09:16;28.10;1.00
837;DHT22;400;53.550;9.932;2023-09-08T15:11:43;28.20;1.00
837;DHT22;400;53.550;9.932;2023-09-08T15:14:14;28.10;1.00
837;DHT22;400;53.550;9.932;2023-09-08T15:16:47;28.10;1.00
837;DHT22;400;53.550;9.932;2023-09-08T15:19:20;28.10;1.00
837;DHT22;400;53.550;9.932;2023-09-08T15:21:52;28.00;1.00
837;DHT22;400;53.550;9.932;2023-09-08T15:24:32;28.00;1.00
837;DHT22;400;53.550;9.932;2023-09-08T15:27:05;28.00;1.00
837;DHT22;400;53.550;9.932;2023-09-08T15:29:33;28.00;1.00
837;DHT22;400;53.550;9.932;2023-09-08T15:32:00;28.00;1.00
837;DHT22;400;53.550;9.932;2023-09-08T15:34:29;28.00;1.00
837;DHT22;400;53.550;9.932;2023-09-08T15:36:56;28.00;1.00
837;DHT22;400;53.550;9.932;2023-09-08T15:39:27;27.90;1.00
837;DHT22;400;53.550;9.932;2023-09-08T15:41:58;27.90;1.00
837;DHT22;400;53.550;9.932;2023-09-08T15:44:28;27.90;1.00
837;DHT22;400;53.550;9.932;2023-09-08T15:47:04;27.90;1.00
837;DHT22;400;53.550;9.932;2023-09-08T15:49:37;27.90;1.00
837;DHT22;400;53.550;9.932;2023-09-08T15:52:08;27.90;1.00
837;DHT22;400;53.550;9.932;2023-09-08T15:54:38;27.80;1.00
837;DHT22;400;53.550;9.932;2023-09-08T15:57:05;27.80;1.00
837;DHT22;400;53.550;9.932;2023-09-08T15:59:34;27.80;1.00
837;DHT22;400;53.550;9.932;2023-09-08T16:02:03;27.80;1.00
837;DHT22;400;53.550;9.932;2023-09-08T16:04:30;27.80;1.00
837;DHT22;400;53.550;9.932;2023-09-08T16:06:58;27.80;1.00
837;DHT22;400;53.550;9.932;2023-09-08T16:09:32;27.80;1.00
837;DHT22;400;53.550;9.932;2023-09-08T16:12:05;27.70;1.00
837;DHT22;400;53.550;9.932;2023-09-08T16:14:36;27.70;1.00
837;DHT22;400;53.550;9.932;2023-09-08T16:17:04;27.70;1.00
837;DHT22;400;53.550;9.932;2023-09-08T16:19:35;27.60;1.00
837;DHT22;400;53.550;9.932;2023-09-08T16:22:06;27.70;1.00
837;DHT22;400;53.550;9.932;2023-09-08T16:24:37;27.60;1.00
837;DHT22;400;53.550;9.932;2023-09-08T16:30:31;27.60;1.00
837;DHT22;400;53.550;9.932;2023-09-08T16:33:03;27.60;1.00
837;DHT22;400;53.550;9.932;2023-09-08T16:35:33;27.50;1.00
837;DHT22;400;53.550;9.932;2023-09-08T16:38:01;27.50;1.00
837;DHT22;400;53.550;9.932;2023-09-08T16:40:30;27.50;1.00
837;DHT22;400;53.550;9.932;2023-09-08T16:42:58;27.40;1.00
837;DHT22;400;53.550;9.932;2023-09-08T16:45:28;27.40;1.00
837;DHT22;400;53.550;9.932;2023-09-08T16:47:56;27.40;1.00
837;DHT22;400;53.550;9.932;2023-09-08T16:50:24;27.40;1.00
837;DHT22;400;53.550;9.932;2023-09-08T16:52:51;27.40;1.00
837;DHT22;400;53.550;9.932;2023-09-08T16:55:18;27.30;1.00
837;DHT22;400;53.550;9.932;2023-09-08T16:57:45;27.30;1.00
837;DHT22;400;53.550;9.932;2023-09-08T17:00:13;27.30;1.00
837;DHT22;400;53.550;9.932;2023-09-08T17:02:41;27.20;1.00
837;DHT22;400;53.550;9.932;2023-09-08T17:05:13;27.20;1.00
837;DHT22;400;53.550;9.932;2023-09-08T17:07:45;27.10;1.00
837;DHT22;400;53.550;9.932;2023-09-08T17:10:12;27.10;1.00
837;DHT22;400;53.550;9.932;2023-09-08T17:12:39;27.10;1.00